UKLL/LWO METAR and TAF weather

Enter ICAO airport designator
Station Type Date Time Source
UKLL METAR 2020/08/15 16:30 UTC NOAA

UKLL 151630Z 09005MPS CAVOK 24/11 Q1015 R13/CLRD// NOSIG


Station Type Date Time Source
UKLL Decoded METAR 2020/08/15 16:30 UTC NOAA

L'Viv, Ukraine (UKLL) 49-49N 023-57E 323M
Aug 15, 2020 - 12:30 PM EDT / 2020.08.15 1630 UTC
Wind: from the E (090 degrees) at 11 MPH (10 KT):0
Visibility: greater than 7 mile(s):0
Temperature: 75 F (24 C)
Dew Point: 51 F (11 C)
Relative Humidity: 43%
Pressure (altimeter): 29.97 in. Hg (1015 hPa)
ob: UKLL 151630Z 09005MPS CAVOK 24/11 Q1015 R13/CLRD// NOSIG
cycle: 16

Station Type Date Time Source
UKLL TAF 2020/08/15 12:12 UTC NOAA

TAF UKLL 151103Z 1512/1612 08005MPS 9999 BKN025 SCT030CB TX25/1513Z TN14/1603Z
TEMPO 1512/1612 10005MPS

Example: see airport list